<?xml version="1.0" encoding="UTF-8" standalone="no" ?>
<gpx xmlns="http://www.topografix.com/GPX/1/1" xmlns:xsi="http://www.w3.org/2001/XMLSchema-instance" xsi:schemaLocation="http://www.topografix.com/GPX/1/1 http://www.topografix.com/GPX/1/1/gpx.xsd" version="1.1" creator="VisuGPX - https://www.visugpx.com">
  <metadata>
    <name>Dourdan / Montigny</name>
    <desc><![CDATA[vtt entre potes]]></desc>
  </metadata>
  <trk>
    <name><![CDATA[Tracé 004]]></name>
    <trkseg>
      <trkpt lat="48.62643" lon="1.91998">
        <ele>171.354599</ele>
        <time>2011-11-14T11:25:42Z</time>
      </trkpt>
      <trkpt lat="48.62671" lon="1.9194">
        <ele>172</ele>
        <time>2011-11-14T11:26:00Z</time>
      </trkpt>
      <trkpt lat="48.62692" lon="1.91893">
        <ele>172</ele>
        <time>2011-11-14T11:26:15Z</time>
      </trkpt>
      <trkpt lat="48.62707" lon="1.91864">
        <ele>172</ele>
        <time>2011-11-14T11:26:25Z</time>
      </trkpt>
      <trkpt lat="48.6273" lon="1.91815">
        <ele>171.650375</ele>
        <time>2011-11-14T11:26:41Z</time>
      </trkpt>
      <trkpt lat="48.62749" lon="1.91799">
        <ele>171.237747</ele>
        <time>2011-11-14T11:26:50Z</time>
      </trkpt>
      <trkpt lat="48.62753" lon="1.91875">
        <ele>171.875717</ele>
        <time>2011-11-14T11:27:10Z</time>
      </trkpt>
      <trkpt lat="48.62763" lon="1.91941">
        <ele>171.930038</ele>
        <time>2011-11-14T11:27:28Z</time>
      </trkpt>
      <trkpt lat="48.62771" lon="1.92023">
        <ele>171</ele>
        <time>2011-11-14T11:27:50Z</time>
      </trkpt>
      <trkpt lat="48.62781" lon="1.92087">
        <ele>171</ele>
        <time>2011-11-14T11:28:07Z</time>
      </trkpt>
      <trkpt lat="48.62789" lon="1.9211">
        <ele>171</ele>
        <time>2011-11-14T11:28:14Z</time>
      </trkpt>
      <trkpt lat="48.62791" lon="1.92171">
        <ele>171</ele>
        <time>2011-11-14T11:28:30Z</time>
      </trkpt>
      <trkpt lat="48.6279" lon="1.92209">
        <ele>171</ele>
        <time>2011-11-14T11:28:40Z</time>
      </trkpt>
      <trkpt lat="48.62805" lon="1.92261">
        <ele>171</ele>
        <time>2011-11-14T11:28:56Z</time>
      </trkpt>
      <trkpt lat="48.62865" lon="1.92366">
        <ele>172</ele>
        <time>2011-11-14T11:29:32Z</time>
      </trkpt>
      <trkpt lat="48.62879" lon="1.9241">
        <ele>172</ele>
        <time>2011-11-14T11:29:45Z</time>
      </trkpt>
      <trkpt lat="48.62886" lon="1.92487">
        <ele>171.327103</ele>
        <time>2011-11-14T11:30:06Z</time>
      </trkpt>
      <trkpt lat="48.62893" lon="1.92532">
        <ele>171.036743</ele>
        <time>2011-11-14T11:30:18Z</time>
      </trkpt>
      <trkpt lat="48.62921" lon="1.9261">
        <ele>170.462967</ele>
        <time>2011-11-14T11:30:41Z</time>
      </trkpt>
      <trkpt lat="48.62939" lon="1.92638">
        <ele>170.083221</ele>
        <time>2011-11-14T11:30:51Z</time>
      </trkpt>
      <trkpt lat="48.62968" lon="1.9267">
        <ele>170</ele>
        <time>2011-11-14T11:31:06Z</time>
      </trkpt>
      <trkpt lat="48.62992" lon="1.92709">
        <ele>169.909271</ele>
        <time>2011-11-14T11:31:20Z</time>
      </trkpt>
      <trkpt lat="48.63019" lon="1.9278">
        <ele>170.232605</ele>
        <time>2011-11-14T11:31:42Z</time>
      </trkpt>
      <trkpt lat="48.63048" lon="1.92822">
        <ele>170.850647</ele>
        <time>2011-11-14T11:31:58Z</time>
      </trkpt>
      <trkpt lat="48.63084" lon="1.92851">
        <ele>170.756119</ele>
        <time>2011-11-14T11:32:14Z</time>
      </trkpt>
      <trkpt lat="48.63108" lon="1.92872">
        <ele>170.067108</ele>
        <time>2011-11-14T11:32:25Z</time>
      </trkpt>
      <trkpt lat="48.63189" lon="1.92939">
        <ele>171.283432</ele>
        <time>2011-11-14T11:33:02Z</time>
      </trkpt>
      <trkpt lat="48.63229" lon="1.92989">
        <ele>171.434616</ele>
        <time>2011-11-14T11:33:23Z</time>
      </trkpt>
      <trkpt lat="48.63255" lon="1.93047">
        <ele>171.180252</ele>
        <time>2011-11-14T11:33:42Z</time>
      </trkpt>
      <trkpt lat="48.63308" lon="1.93124">
        <ele>171.876312</ele>
        <time>2011-11-14T11:34:11Z</time>
      </trkpt>
      <trkpt lat="48.63326" lon="1.9315">
        <ele>171.713211</ele>
        <time>2011-11-14T11:34:21Z</time>
      </trkpt>
      <trkpt lat="48.63341" lon="1.93182">
        <ele>171.843445</ele>
        <time>2011-11-14T11:34:31Z</time>
      </trkpt>
      <trkpt lat="48.63349" lon="1.93206">
        <ele>171.44931</ele>
        <time>2011-11-14T11:34:38Z</time>
      </trkpt>
      <trkpt lat="48.63373" lon="1.93268">
        <ele>169.167419</ele>
        <time>2011-11-14T11:34:57Z</time>
      </trkpt>
      <trkpt lat="48.63383" lon="1.93317">
        <ele>167.818985</ele>
        <time>2011-11-14T11:35:11Z</time>
      </trkpt>
      <trkpt lat="48.63397" lon="1.93368">
        <ele>169.32341</ele>
        <time>2011-11-14T11:35:26Z</time>
      </trkpt>
      <trkpt lat="48.63403" lon="1.934">
        <ele>168.681747</ele>
        <time>2011-11-14T11:35:34Z</time>
      </trkpt>
      <trkpt lat="48.63404" lon="1.9346">
        <ele>168.677216</ele>
        <time>2011-11-14T11:35:50Z</time>
      </trkpt>
      <trkpt lat="48.63411" lon="1.93499">
        <ele>167.44722</ele>
        <time>2011-11-14T11:36:01Z</time>
      </trkpt>
      <trkpt lat="48.63437" lon="1.93531">
        <ele>164.03537</ele>
        <time>2011-11-14T11:36:14Z</time>
      </trkpt>
      <trkpt lat="48.63494" lon="1.93593">
        <ele>157.213608</ele>
        <time>2011-11-14T11:36:42Z</time>
      </trkpt>
      <trkpt lat="48.63562" lon="1.93629">
        <ele>150.94545</ele>
        <time>2011-11-14T11:37:11Z</time>
      </trkpt>
      <trkpt lat="48.63578" lon="1.93642">
        <ele>149.804108</ele>
        <time>2011-11-14T11:37:18Z</time>
      </trkpt>
      <trkpt lat="48.6366" lon="1.93701">
        <ele>142.440613</ele>
        <time>2011-11-14T11:37:55Z</time>
      </trkpt>
      <trkpt lat="48.63669" lon="1.93708">
        <ele>141.653519</ele>
        <time>2011-11-14T11:37:59Z</time>
      </trkpt>
      <trkpt lat="48.63715" lon="1.93755">
        <ele>138.349823</ele>
        <time>2011-11-14T11:38:21Z</time>
      </trkpt>
      <trkpt lat="48.63723" lon="1.93761">
        <ele>137.903229</ele>
        <time>2011-11-14T11:38:25Z</time>
      </trkpt>
      <trkpt lat="48.63771" lon="1.93782">
        <ele>135.302612</ele>
        <time>2011-11-14T11:38:45Z</time>
      </trkpt>
      <trkpt lat="48.63797" lon="1.93795">
        <ele>134.147644</ele>
        <time>2011-11-14T11:38:56Z</time>
      </trkpt>
      <trkpt lat="48.63818" lon="1.93736">
        <ele>134.227524</ele>
        <time>2011-11-14T11:39:13Z</time>
      </trkpt>
      <trkpt lat="48.63853" lon="1.93716">
        <ele>135.045227</ele>
        <time>2011-11-14T11:39:28Z</time>
      </trkpt>
      <trkpt lat="48.63899" lon="1.93684">
        <ele>137.497665</ele>
        <time>2011-11-14T11:39:49Z</time>
      </trkpt>
      <trkpt lat="48.63949" lon="1.93668">
        <ele>140.21788</ele>
        <time>2011-11-14T11:40:09Z</time>
      </trkpt>
      <trkpt lat="48.63997" lon="1.93649">
        <ele>142.61145</ele>
        <time>2011-11-14T11:40:29Z</time>
      </trkpt>
      <trkpt lat="48.64055" lon="1.93638">
        <ele>146.049728</ele>
        <time>2011-11-14T11:40:52Z</time>
      </trkpt>
      <trkpt lat="48.64151" lon="1.93642">
        <ele>148.7547</ele>
        <time>2011-11-14T11:41:31Z</time>
      </trkpt>
      <trkpt lat="48.64161" lon="1.9361">
        <ele>149.733459</ele>
        <time>2011-11-14T11:41:40Z</time>
      </trkpt>
      <trkpt lat="48.6419" lon="1.9355">
        <ele>150.280075</ele>
        <time>2011-11-14T11:42:00Z</time>
      </trkpt>
      <trkpt lat="48.64234" lon="1.93462">
        <ele>148.841614</ele>
        <time>2011-11-14T11:42:29Z</time>
      </trkpt>
      <trkpt lat="48.64281" lon="1.93477">
        <ele>145.177444</ele>
        <time>2011-11-14T11:42:48Z</time>
      </trkpt>
      <trkpt lat="48.64319" lon="1.93502">
        <ele>141.70874</ele>
        <time>2011-11-14T11:43:05Z</time>
      </trkpt>
      <trkpt lat="48.6434" lon="1.93487">
        <ele>140.481094</ele>
        <time>2011-11-14T11:43:14Z</time>
      </trkpt>
      <trkpt lat="48.6437" lon="1.93456">
        <ele>142.031418</ele>
        <time>2011-11-14T11:43:29Z</time>
      </trkpt>
      <trkpt lat="48.64377" lon="1.93425">
        <ele>142.043869</ele>
        <time>2011-11-14T11:43:37Z</time>
      </trkpt>
    </trkseg>
  </trk>
</gpx>